createdAt,value
2022-08-05T00:00:50.108Z,65.65
2022-08-05T00:06:05.671Z,65.47
2022-08-05T00:11:20.807Z,65.70
2022-08-05T00:16:35.529Z,66.41
2022-08-05T00:21:38.062Z,66.83
2022-08-05T00:26:46.722Z,67.35
2022-08-05T00:32:13.435Z,67.68
2022-08-05T00:37:17.307Z,67.80
2022-08-05T00:42:36.970Z,67.67
2022-08-05T00:47:56.476Z,67.14
2022-08-05T00:53:00.000Z,67.13
2022-08-05T00:58:02.245Z,67.25
2022-08-05T01:03:07.929Z,67.10
2022-08-05T01:08:42.157Z,68.35
2022-08-05T01:14:00.198Z,68.99
2022-08-05T01:19:16.599Z,69.04
2022-08-05T01:24:43.431Z,69.24
2022-08-05T01:29:50.500Z,68.02
2022-08-05T01:35:03.126Z,67.84
2022-08-05T01:40:17.897Z,67.95
2022-08-05T01:45:21.236Z,68.54
2022-08-05T01:50:28.758Z,68.83
2022-08-05T01:55:36.067Z,68.64
2022-08-05T02:00:42.052Z,68.92
2022-08-05T02:05:48.295Z,69.16
2022-08-05T02:11:02.789Z,69.04
2022-08-05T02:16:16.599Z,69.23
2022-08-05T02:21:43.510Z,69.54
2022-08-05T02:26:56.783Z,70.11
2022-08-05T02:32:00.024Z,70.20
2022-08-05T02:37:10.268Z,70.50
2022-08-05T02:42:25.852Z,70.89
2022-08-05T02:48:06.811Z,70.64
2022-08-05T02:52:55.156Z,70.70
2022-08-05T02:58:10.545Z,71.78
2022-08-05T03:03:20.011Z,71.95
2022-08-05T03:08:27.182Z,72.16
2022-08-05T03:13:51.161Z,72.41
2022-08-05T03:18:53.919Z,71.57
2022-08-05T03:23:57.623Z,71.17
2022-08-05T03:29:00.538Z,70.57
2022-08-05T03:34:04.557Z,70.06
2022-08-05T03:39:08.254Z,69.80
2022-08-05T03:44:19.692Z,70.04
2022-08-05T03:49:24.060Z,70.61
2022-08-05T03:55:50.145Z,70.65
2022-08-05T04:00:15.559Z,71.66
2022-08-05T04:05:19.989Z,71.67
2022-08-05T04:10:27.954Z,71.42
2022-08-05T04:15:33.351Z,71.20
2022-08-05T04:20:41.376Z,71.48
2022-08-05T04:26:00.310Z,71.93
2022-08-05T04:31:03.179Z,71.22
2022-08-05T04:36:38.603Z,71.52
2022-08-05T04:41:37.774Z,71.81
2022-08-05T04:46:41.247Z,72.04
2022-08-05T04:51:49.188Z,71.37
2022-08-05T04:57:02.469Z,71.93
2022-08-05T05:02:08.306Z,71.82
2022-08-05T05:07:29.619Z,72.27
2022-08-05T05:12:36.853Z,72.43
2022-08-05T05:17:56.532Z,72.36
2022-08-05T05:23:08.023Z,72.55
2022-08-05T05:28:12.104Z,72.84
2022-08-05T05:33:16.997Z,72.93
2022-08-05T05:38:22.824Z,73.55
2022-08-05T05:43:57.268Z,73.09
2022-08-05T05:48:51.550Z,73.41
2022-08-05T05:53:59.553Z,73.38
2022-08-05T05:59:07.698Z,73.60
2022-08-05T06:04:12.715Z,73.66
2022-08-05T06:09:17.011Z,74.43
2022-08-05T06:14:28.107Z,74.63
2022-08-05T06:19:35.377Z,74.81
2022-08-05T06:24:48.107Z,74.85
2022-08-05T06:30:02.768Z,75.14
2022-08-05T06:35:15.599Z,74.71
2022-08-05T06:40:32.769Z,75.29
2022-08-05T06:45:44.908Z,75.28
2022-08-05T06:50:57.630Z,75.29
2022-08-05T06:56:00.986Z,75.90
2022-08-05T07:01:05.367Z,76.34
2022-08-05T07:06:14.135Z,77.69
2022-08-05T07:11:17.424Z,77.15
2022-08-05T07:17:56.272Z,77.13
2022-08-05T07:22:05.233Z,76.69
2022-08-05T07:27:10.579Z,76.94
2022-08-05T07:32:12.659Z,76.41
2022-08-05T07:37:16.782Z,75.91
2022-08-05T07:42:18.987Z,75.88
2022-08-05T07:47:42.124Z,75.81
2022-08-05T07:52:44.850Z,75.89
2022-08-05T07:57:58.889Z,75.43
2022-08-05T08:03:15.233Z,75.48
2022-08-05T08:08:19.974Z,75.47
2022-08-05T08:13:29.045Z,75.98
2022-08-05T08:18:31.726Z,76.92
2022-08-05T08:24:02.636Z,77.13
2022-08-05T08:28:59.825Z,75.43
2022-08-05T08:34:30.507Z,76.21
2022-08-05T08:39:37.825Z,74.17
2022-08-05T08:45:19.057Z,74.54
2022-08-05T08:50:29.829Z,75.03
2022-08-05T08:56:02.205Z,75.87
2022-08-05T09:00:49.124Z,75.47
2022-08-05T09:06:09.059Z,75.23
2022-08-05T09:11:15.311Z,74.13
2022-08-05T09:16:17.803Z,74.57
2022-08-05T09:22:21.974Z,74.45
2022-08-05T09:26:52.032Z,74.25
2022-08-05T09:32:41.143Z,74.21
2022-08-05T09:38:16.366Z,73.32
2022-08-05T09:42:52.712Z,72.95
2022-08-05T09:47:56.756Z,72.33
2022-08-05T09:52:59.728Z,73.04
2022-08-05T09:58:14.904Z,73.65
2022-08-05T10:03:17.160Z,72.34
2022-08-05T10:08:35.880Z,71.05
2022-08-05T10:13:47.262Z,71.36
2022-08-05T10:18:50.895Z,71.49
2022-08-05T10:23:59.760Z,71.75
2022-08-05T10:29:02.867Z,71.85
2022-08-05T10:34:06.972Z,72.22
2022-08-05T10:39:25.244Z,72.09
2022-08-05T10:44:46.247Z,71.09
2022-08-05T10:50:31.691Z,70.67
2022-08-05T10:56:03.731Z,70.04
2022-08-05T11:01:03.078Z,69.78
2022-08-05T11:06:15.532Z,70.09
2022-08-05T11:11:44.706Z,70.28
2022-08-05T11:18:00.118Z,69.47
2022-08-05T11:23:01.994Z,69.60
2022-08-05T11:28:17.098Z,69.88
2022-08-05T11:33:43.858Z,70.15
2022-08-05T11:38:51.329Z,69.60
2022-08-05T11:44:40.115Z,68.47
2022-08-05T11:49:38.903Z,68.89
2022-08-05T11:54:54.806Z,68.64
2022-08-05T11:59:58.714Z,69.22
2022-08-05T12:05:06.937Z,69.25
2022-08-05T12:10:13.554Z,68.86
2022-08-05T12:15:33.260Z,68.01
2022-08-05T12:20:41.328Z,66.48
2022-08-05T12:25:50.178Z,67.67
2022-08-05T12:30:52.352Z,67.65
2022-08-05T12:35:56.397Z,67.73
2022-08-05T12:40:59.464Z,66.85
2022-08-05T12:46:01.587Z,67.62
2022-08-05T12:52:10.129Z,68.20
2022-08-05T12:56:45.048Z,67.48
2022-08-05T13:02:07.889Z,66.90
2022-08-05T13:07:41.412Z,66.25
2022-08-05T13:12:57.475Z,66.32
2022-08-05T13:18:00.463Z,66.65
2022-08-05T13:23:07.186Z,67.88
2022-08-05T13:28:10.684Z,68.30
2022-08-05T13:33:14.245Z,68.43
2022-08-05T13:38:28.056Z,68.87
2022-08-05T13:43:44.956Z,68.57
2022-08-05T13:48:57.664Z,69.03
2022-08-05T13:54:02.834Z,68.78
2022-08-05T13:59:06.006Z,68.87
2022-08-05T14:04:27.033Z,69.23
2022-08-05T14:09:29.996Z,69.11
2022-08-05T14:14:33.773Z,69.23
2022-08-05T14:19:54.266Z,69.17
2022-08-05T14:24:58.100Z,69.30
2022-08-05T14:30:00.267Z,68.99
2022-08-05T14:35:05.275Z,69.33
2022-08-05T14:40:13.988Z,69.45
2022-08-05T14:45:19.158Z,69.08
2022-08-05T14:50:21.236Z,69.07
2022-08-05T14:55:24.697Z,68.95
2022-08-05T15:00:29.379Z,67.75
2022-08-05T15:06:07.591Z,67.71
2022-08-05T15:10:54.674Z,68.16
2022-08-05T15:15:56.853Z,67.74
2022-08-05T15:20:59.032Z,67.89
2022-08-05T15:26:09.960Z,67.10
2022-08-05T15:31:12.151Z,67.28
2022-08-05T15:36:24.597Z,66.90
2022-08-05T15:41:58.032Z,66.24
2022-08-05T15:46:50.779Z,65.73
2022-08-05T15:52:10.309Z,65.94
2022-08-05T15:57:17.067Z,65.95
2022-08-05T16:02:25.221Z,66.25
2022-08-05T16:07:29.617Z,66.32
2022-08-05T16:12:31.959Z,65.72
2022-08-05T16:17:34.234Z,66.02
2022-08-05T16:22:36.604Z,65.33
2022-08-05T16:28:00.960Z,65.12
2022-08-05T16:33:02.961Z,62.72
2022-08-05T16:38:18.530Z,62.46
2022-08-05T16:43:28.855Z,63.22
2022-08-05T16:48:33.486Z,63.68
2022-08-05T16:54:05.025Z,63.13
2022-08-05T16:59:08.522Z,63.37
2022-08-05T17:04:10.856Z,63.68
2022-08-05T17:09:17.313Z,63.74
2022-08-05T17:14:34.183Z,63.97
2022-08-05T17:19:41.862Z,63.89
2022-08-05T17:24:57.210Z,64.12
2022-08-05T17:30:02.464Z,63.95
2022-08-05T17:35:05.316Z,64.27
2022-08-05T17:40:12.781Z,64.63
2022-08-05T17:45:20.129Z,64.94
2022-08-05T17:50:30.414Z,64.28
2022-08-05T17:55:38.001Z,65.44
2022-08-05T18:00:45.093Z,65.35
2022-08-05T18:05:53.453Z,65.53
2022-08-05T18:10:56.418Z,65.63
2022-08-05T18:15:59.518Z,65.62
2022-08-05T18:21:01.741Z,65.57
2022-08-05T18:26:03.875Z,66.17
2022-08-05T18:31:07.611Z,65.52
2022-08-05T18:36:15.649Z,65.68
2022-08-05T18:41:56.032Z,65.72
2022-08-05T18:46:41.257Z,65.23
2022-08-05T18:52:08.461Z,64.83
2022-08-05T18:57:15.403Z,65.47
2022-08-05T19:02:27.731Z,65.68
2022-08-05T19:07:45.899Z,66.48
2022-08-05T19:12:49.156Z,67.54
2022-08-05T19:18:08.562Z,67.78
2022-08-05T19:24:03.958Z,68.90
2022-08-05T19:28:35.335Z,68.55
2022-08-05T19:33:38.327Z,68.53
2022-08-05T19:38:44.062Z,68.20
2022-08-05T19:44:06.822Z,67.80
2022-08-05T19:49:08.487Z,68.64
2022-08-05T19:54:25.547Z,69.46
2022-08-05T19:59:56.102Z,69.11
2022-08-05T20:04:59.642Z,68.95
2022-08-05T20:10:04.848Z,70.33
2022-08-05T20:15:14.189Z,70.25
2022-08-05T20:20:16.620Z,70.66
2022-08-05T20:25:19.204Z,70.50
2022-08-05T20:30:26.525Z,71.04
2022-08-05T20:35:28.684Z,71.09
2022-08-05T20:40:35.519Z,71.10
2022-08-05T20:45:56.578Z,71.46
2022-08-05T20:50:59.369Z,71.75
2022-08-05T20:56:10.354Z,71.56
2022-08-05T21:01:12.552Z,71.85
2022-08-05T21:06:27.884Z,71.91
2022-08-05T21:12:06.854Z,72.08
2022-08-05T21:16:52.945Z,71.76
2022-08-05T21:21:55.637Z,71.80
2022-08-05T21:26:58.884Z,71.50
2022-08-05T21:32:02.788Z,70.75
2022-08-05T21:37:05.290Z,70.13
2022-08-05T21:42:07.717Z,69.27
2022-08-05T21:47:54.753Z,69.04
2022-08-05T21:52:51.853Z,68.77
2022-08-05T21:57:54.936Z,68.43
2022-08-05T22:02:58.087Z,68.84
2022-08-05T22:08:02.479Z,69.41
2022-08-05T22:13:08.684Z,69.31
2022-08-05T22:18:26.886Z,70.09
2022-08-05T22:24:02.320Z,69.37
2022-08-05T22:29:06.948Z,69.44
2022-08-05T22:34:09.096Z,68.95
2022-08-05T22:39:21.506Z,68.84
2022-08-05T22:44:23.853Z,69.55
2022-08-05T22:50:20.285Z,69.92
2022-08-05T22:54:49.545Z,68.88
2022-08-05T22:59:54.172Z,68.49
2022-08-05T23:04:57.004Z,67.95
2022-08-05T23:10:01.461Z,67.70
2022-08-05T23:15:09.097Z,68.16
2022-08-05T23:20:17.524Z,68.02
2022-08-05T23:25:52.620Z,66.58
2022-08-05T23:30:43.536Z,66.07
2022-08-05T23:35:46.104Z,64.85
2022-08-05T23:40:49.493Z,65.17
2022-08-05T23:45:52.491Z,65.72
2022-08-05T23:50:55.006Z,66.05
2022-08-05T23:55:57.419Z,65.61
